Time;durP1;ratioP1;P1;durP2;ratioP2;P2;SDS_P1;SDS_P2;PMS_P1;PMS_P2;Temp;Humidity;BMP_temperature;BMP_pressure;BME280_temperature;BME280_humidity;BME280_pressure;Samples;Min_cycle;Max_cycle;Signal;HPM_P1;HPM_P2
2022/12/03 00:01:34;;;;;;;7.40;6.78;;;;;;;1.21;100.00;98777.41;4225739;27;20210;-47
2022/12/03 00:03:36;;;;;;;8.52;7.72;;;;;;;1.28;100.00;98777.50;4239445;27;20213;-47
2022/12/03 00:05:38;;;;;;;6.55;6.05;;;;;;;1.21;100.00;98766.63;4209519;28;20313;-47
2022/12/03 00:07:48;;;;;;;7.77;7.07;;;;;;;1.16;100.00;98760.13;4226173;27;20200;-47
2022/12/03 00:09:50;;;;;;;7.80;7.28;;;;;;;1.24;100.00;98773.50;4236249;27;20283;-48
2022/12/03 00:11:52;;;;;;;7.13;6.43;;;;;;;1.22;100.00;98762.09;4208448;28;20206;-48
2022/12/03 00:13:53;;;;;;;6.13;5.53;;;;;;;1.32;100.00;98779.66;4208196;28;20290;-46
2022/12/03 00:15:55;;;;;;;6.95;6.35;;;;;;;1.38;100.00;98776.22;4238810;27;20221;-47
2022/12/03 00:17:57;;;;;;;6.85;6.22;;;;;;;1.32;100.00;98768.88;4239377;27;20200;-48
2022/12/03 00:19:59;;;;;;;7.73;6.93;;;;;;;1.35;100.00;98767.66;4226074;27;20661;-47
2022/12/03 00:22:01;;;;;;;7.38;6.80;;;;;;;1.40;100.00;98766.06;4228474;27;20217;-47
2022/12/03 00:24:03;;;;;;;6.45;5.82;;;;;;;1.38;100.00;98773.53;4238298;27;20620;-47
2022/12/03 00:26:04;;;;;;;6.20;5.70;;;;;;;1.34;100.00;98782.97;4222861;27;20252;-48
2022/12/03 00:28:06;;;;;;;6.45;5.85;;;;;;;1.39;100.00;98775.19;4204762;28;20215;-50
2022/12/03 00:30:09;;;;;;;6.78;6.28;;;;;;;1.39;100.00;98777.88;4220753;27;20858;-49
2022/12/03 00:32:11;;;;;;;6.13;5.53;;;;;;;1.39;100.00;98785.97;4222107;27;20220;-47
2022/12/03 00:34:12;;;;;;;6.13;5.63;;;;;;;1.30;100.00;98775.47;4212939;27;20207;-48
2022/12/03 00:36:14;;;;;;;5.38;4.88;;;;;;;1.36;100.00;98772.88;4209196;28;20317;-47
2022/12/03 00:38:16;;;;;;;6.00;5.45;;;;;;;1.31;100.00;98772.59;4211077;28;20202;-47
2022/12/03 00:40:18;;;;;;;6.50;6.00;;;;;;;1.29;100.00;98771.91;4210504;28;20210;-47
2022/12/03 00:42:20;;;;;;;7.07;6.57;;;;;;;1.29;100.00;98771.91;4209652;28;20203;-47
2022/12/03 00:44:21;;;;;;;6.72;6.22;;;;;;;1.31;100.00;98759.13;4225132;27;20214;-47
2022/12/03 00:46:24;;;;;;;6.15;5.57;;;;;;;1.41;100.00;98773.13;4238417;27;20271;-49
2022/12/03 00:48:25;;;;;;;5.60;5.15;;;;;;;1.38;100.00;98778.06;4222894;27;20727;-46
2022/12/03 00:50:27;;;;;;;7.03;6.43;;;;;;;1.26;100.00;98769.59;4209158;28;20305;-48
2022/12/03 00:52:29;;;;;;;7.70;7.17;;;;;;;1.25;100.00;98778.72;4208546;28;20207;-49
2022/12/03 00:54:31;;;;;;;6.50;5.97;;;;;;;1.23;100.00;98780.78;4224582;27;20589;-47
2022/12/03 00:56:33;;;;;;;6.40;5.90;;;;;;;1.30;100.00;98776.31;4224962;27;20758;-49
2022/12/03 00:58:34;;;;;;;6.90;6.30;;;;;;;1.27;100.00;98782.06;4223935;27;20848;-47
2022/12/03 01:00:36;;;;;;;7.53;6.88;;;;;;;1.19;100.00;98784.00;4224192;27;20292;-47
2022/12/03 01:02:38;;;;;;;8.75;7.95;;;;;;;1.25;100.00;98784.09;4208137;28;20211;-47
2022/12/03 01:04:40;;;;;;;6.38;5.57;;;;;;;1.32;100.00;98778.78;4242109;27;20209;-49
2022/12/03 01:06:42;;;;;;;7.10;6.40;;;;;;;1.35;100.00;98784.66;4238982;27;20299;-47
2022/12/03 01:08:44;;;;;;;7.53;6.82;;;;;;;1.37;100.00;98785.31;4242037;27;20247;-47
2022/12/03 01:10:45;;;;;;;6.60;5.80;;;;;;;1.26;100.00;98779.53;4208895;28;20243;-47
2022/12/03 01:12:47;;;;;;;8.02;7.28;;;;;;;1.28;100.00;98783.72;4217472;27;20663;-49
2022/12/03 01:14:49;;;;;;;5.88;5.38;;;;;;;1.32;100.00;98785.03;4225923;27;20252;-48
2022/12/03 01:16:51;;;;;;;6.30;5.70;;;;;;;1.28;100.00;98785.59;4237280;27;20309;-47
2022/12/03 01:18:53;;;;;;;7.60;6.95;;;;;;;1.26;100.00;98790.31;4239220;27;20758;-47
2022/12/03 01:20:55;;;;;;;6.43;5.88;;;;;;;1.29;100.00;98793.47;4239832;27;20208;-49
2022/12/03 01:22:57;;;;;;;7.40;6.80;;;;;;;1.22;100.00;98789.84;4206484;28;20221;-46
2022/12/03 01:24:59;;;;;;;6.22;5.72;;;;;;;1.29;100.00;98793.47;4237225;27;20291;-47
2022/12/03 01:27:00;;;;;;;7.63;6.93;;;;;;;1.37;100.00;98793.41;4208610;28;20779;-47
2022/12/03 01:29:03;;;;;;;7.47;6.88;;;;;;;1.35;100.00;98795.44;4240546;27;20645;-47
2022/12/03 01:33:29;;;;;;;8.20;7.40;;;;;;;1.34;100.00;98799.16;4238880;27;20253;-47
2022/12/03 01:35:30;;;;;;;7.53;6.93;;;;;;;1.28;100.00;98799.88;4221243;28;20271;-48
2022/12/03 01:37:32;;;;;;;6.15;5.57;;;;;;;1.16;100.00;98801.38;4223534;28;20316;-48
2022/12/03 01:39:34;;;;;;;6.13;5.53;;;;;;;1.19;100.00;98801.00;4210171;28;20735;-47
2022/12/03 01:41:36;;;;;;;7.97;7.25;;;;;;;1.22;100.00;98803.31;4239341;27;20213;-47
2022/12/03 01:43:38;;;;;;;7.55;6.88;;;;;;;1.31;100.00;98804.94;4224585;28;20332;-47
2022/12/03 01:45:39;;;;;;;7.60;6.93;;;;;;;1.19;100.00;98801.00;4208329;28;20317;-48
2022/12/03 01:47:41;;;;;;;6.28;5.68;;;;;;;1.22;100.00;98800.63;4224454;28;20202;-47
2022/12/03 01:49:47;;;;;;;7.45;6.78;;;;;;;1.29;100.00;98796.16;4209197;28;20241;-47
2022/12/03 01:51:50;;;;;;;8.15;7.45;;;;;;;1.19;100.00;98806.41;4204951;28;20951;-48
2022/12/03 01:53:52;;;;;;;6.47;5.90;;;;;;;1.31;100.00;98804.09;4240877;27;20209;-47
2022/12/03 01:55:54;;;;;;;8.40;7.25;;;;;;;1.29;100.00;98806.94;4224567;27;20312;-47
2022/12/03 01:57:58;;;;;;;9.65;6.90;;;;;;;1.28;100.00;98812.53;4241766;27;20240;-48
2022/12/03 02:00:00;;;;;;;7.00;6.40;;;;;;;1.31;100.00;98810.31;4207917;28;20884;-47
2022/12/03 02:02:20;;;;;;;7.13;6.43;;;;;;;1.21;100.00;98808.91;4223432;27;20227;-47
2022/12/03 02:04:23;;;;;;;9.80;9.02;;;;;;;1.33;100.00;98808.25;4228207;27;20217;-47
2022/12/03 02:06:27;;;;;;;7.82;7.10;;;;;;;1.28;100.00;98810.66;4224883;27;20237;-47
2022/12/03 02:08:33;;;;;;;8.02;7.22;;;;;;;1.24;100.00;98824.72;4240078;27;20751;-48
2022/12/03 02:10:36;;;;;;;8.45;7.63;;;;;;;1.25;100.00;98816.44;4223741;27;20206;-48
2022/12/03 02:12:47;;;;;;;7.45;6.75;;;;;;;1.23;100.00;98813.09;4227698;27;20744;-47
2022/12/03 02:14:49;;;;;;;8.50;6.55;;;;;;;1.35;100.00;98817.00;4224955;27;20289;-48
2022/12/03 02:16:51;;;;;;;8.20;7.50;;;;;;;1.32;100.00;98817.38;4226925;27;20251;-48
2022/12/03 02:18:53;;;;;;;8.75;7.95;;;;;;;1.32;100.00;98817.38;4235255;27;20212;-47
2022/12/03 02:21:19;;;;;;;9.55;8.65;;;;;;;1.43;100.00;98824.16;4207544;28;20643;-47
2022/12/03 02:23:33;;;;;;;9.95;8.20;;;;;;;1.56;100.00;98819.81;4220059;27;20202;-47
2022/12/03 02:25:35;;;;;;;8.30;7.60;;;;;;;1.49;100.00;98818.84;4236609;27;20261;-47
2022/12/03 02:27:37;;;;;;;8.15;7.53;;;;;;;1.63;100.00;98815.34;4240697;27;20196;-47
2022/12/03 02:29:38;;;;;;;8.70;6.78;;;;;;;1.60;100.00;98810.31;4226559;27;20245;-48
2022/12/03 02:31:41;;;;;;;7.90;7.30;;;;;;;1.47;100.00;98806.63;4221368;27;20224;-47
2022/12/03 02:33:43;;;;;;;8.02;7.32;;;;;;;1.30;100.00;98816.72;4225976;27;20207;-47
2022/12/03 02:35:48;;;;;;;10.45;6.70;;;;;;;1.39;100.00;98809.38;4222994;27;20306;-47
2022/12/03 02:38:06;;;;;;;9.88;8.52;;;;;;;1.32;100.00;98811.13;4208557;28;20228;-47
2022/12/03 02:40:11;;;;;;;8.88;8.10;;;;;;;1.41;100.00;98816.25;4224884;27;20419;-48
2022/12/03 02:44:33;;;;;;;9.43;8.63;;;;;;;1.28;100.00;98810.66;4238247;27;20212;-47
2022/12/03 02:46:35;;;;;;;9.27;8.38;;;;;;;1.28;100.00;98809.84;4206547;28;20345;-48
2022/12/03 02:48:39;;;;;;;9.73;8.82;;;;;;;1.32;100.00;98803.06;4230434;27;20289;-47
2022/12/03 02:50:45;;;;;;;10.20;9.20;;;;;;;1.44;100.00;98810.50;4240868;27;20212;-47
2022/12/03 02:52:47;;;;;;;8.43;7.55;;;;;;;1.41;100.00;98808.16;4240833;27;20302;-48
2022/12/03 02:54:49;;;;;;;9.55;8.65;;;;;;;1.45;100.00;98796.00;4223993;27;20340;-50
2022/12/03 02:56:51;;;;;;;9.98;8.55;;;;;;;1.30;100.00;98805.97;4240081;27;20660;-47
2022/12/03 02:58:55;;;;;;;8.38;7.55;;;;;;;1.33;100.00;98799.38;4220450;27;20235;-48
2022/12/03 03:00:58;;;;;;;9.50;8.60;;;;;;;1.39;100.00;98804.84;4222170;28;20237;-48
2022/12/03 03:03:01;;;;;;;12.50;9.50;;;;;;;1.22;100.00;98800.63;4225812;27;20205;-47
2022/12/03 03:05:04;;;;;;;9.52;8.57;;;;;;;1.28;100.00;98799.88;4223525;27;20263;-47
2022/12/03 03:07:06;;;;;;;8.90;8.13;;;;;;;1.28;100.00;98805.28;4223402;27;20302;-47
2022/12/03 03:09:08;;;;;;;11.30;8.43;;;;;;;1.24;100.00;98803.16;4221569;27;20233;-49
2022/12/03 03:11:10;;;;;;;10.52;9.52;;;;;;;1.26;100.00;98807.34;4237380;27;20204;-47
2022/12/03 03:13:14;;;;;;;10.50;9.48;;;;;;;1.21;100.00;98809.75;4240810;27;20297;-48
2022/12/03 03:15:19;;;;;;;11.35;10.15;;;;;;;1.30;100.00;98803.25;4211085;28;20268;-48
2022/12/03 03:17:21;;;;;;;11.00;9.90;;;;;;;1.24;100.00;98803.16;4228160;27;20313;-47
2022/12/03 03:19:27;;;;;;;10.98;9.45;;;;;;;1.32;100.00;98806.59;4240870;27;20281;-47
2022/12/03 03:21:29;;;;;;;9.60;8.70;;;;;;;1.39;100.00;98803.97;4236590;27;20241;-47
2022/12/03 03:23:31;;;;;;;9.85;8.52;;;;;;;1.36;100.00;98797.13;4239684;27;20324;-47
2022/12/03 03:25:32;;;;;;;12.10;10.43;;;;;;;1.35;100.00;98798.13;4222370;27;20237;-47
2022/12/03 03:27:35;;;;;;;10.40;9.32;;;;;;;1.28;100.00;98805.28;4221591;27;20233;-48
2022/12/03 03:29:36;;;;;;;11.15;9.05;;;;;;;1.31;100.00;98796.84;4239468;27;20561;-49
2022/12/03 03:31:39;;;;;;;9.90;8.15;;;;;;;1.25;100.00;98802.97;4227062;27;20252;-47
2022/12/03 03:33:43;;;;;;;15.20;11.90;;;;;;;1.19;100.00;98790.22;4219990;27;20215;-47
2022/12/03 03:35:45;;;;;;;10.63;9.52;;;;;;;1.27;100.00;98798.22;4221114;27;20918;-47
2022/12/03 03:37:47;;;;;;;12.10;10.85;;;;;;;1.19;100.00;98792.94;4204680;28;20709;-49
2022/12/03 03:39:49;;;;;;;12.27;9.38;;;;;;;1.33;100.00;98792.09;4229590;27;20253;-47
2022/12/03 03:41:51;;;;;;;11.18;10.10;;;;;;;1.24;100.00;98787.81;4211015;28;20218;-47
2022/12/03 03:43:52;;;;;;;14.33;10.90;;;;;;;1.31;100.00;98794.16;4224976;27;20693;-48
2022/12/03 03:45:54;;;;;;;13.35;10.30;;;;;;;1.27;100.00;98792.84;4205174;28;20219;-47
2022/12/03 03:47:57;;;;;;;12.90;9.85;;;;;;;1.32;100.00;98790.44;4242824;27;20203;-48
2022/12/03 03:49:58;;;;;;;11.25;9.93;;;;;;;1.42;100.00;98790.97;4237881;27;20587;-47
2022/12/03 03:52:01;;;;;;;11.13;10.02;;;;;;;1.42;100.00;98780.19;4218882;27;20245;-48
2022/12/03 03:54:03;;;;;;;13.30;11.15;;;;;;;1.41;100.00;98789.31;4227803;27;20233;-47
2022/12/03 03:56:05;;;;;;;12.38;10.70;;;;;;;1.51;100.00;98783.63;4222573;27;20661;-48
2022/12/03 03:58:07;;;;;;;11.25;9.95;;;;;;;1.55;100.00;98785.75;4236565;27;20386;-48
2022/12/03 04:00:10;;;;;;;12.60;11.05;;;;;;;1.53;100.00;98782.44;4220736;27;20291;-48
2022/12/03 04:02:24;;;;;;;11.68;9.02;;;;;;;1.39;100.00;98777.03;4237123;27;20230;-47
2022/12/03 04:04:26;;;;;;;16.13;12.00;;;;;;;1.35;100.00;98783.84;4237060;27;20205;-48
2022/12/03 04:06:28;;;;;;;14.70;11.07;;;;;;;1.44;100.00;98778.16;4237875;27;20232;-48
2022/12/03 04:08:30;;;;;;;11.45;10.30;;;;;;;1.34;100.00;98774.91;4221238;27;20265;-47
2022/12/03 04:12:55;;;;;;;18.05;11.68;;;;;;;1.48;100.00;98782.13;4240279;27;20225;-47
2022/12/03 04:14:57;;;;;;;14.68;10.10;;;;;;;1.61;100.00;98778.81;4204574;28;20245;-47
2022/12/03 04:16:59;;;;;;;14.30;11.68;;;;;;;1.59;100.00;98770.91;4216524;27;20900;-49
2022/12/03 04:19:01;;;;;;;12.18;10.32;;;;;;;1.58;100.00;98774.63;4237125;27;20659;-48
2022/12/03 04:23:23;;;;;;;10.88;9.75;;;;;;;1.51;100.00;98768.31;4235965;27;20221;-47
2022/12/03 04:30:13;;;;;;;16.02;11.55;;;;;;;1.29;100.00;98761.13;4238170;27;20270;-48
2022/12/03 04:37:12;;;;;;;12.98;11.68;;;;;;;1.33;100.00;98769.72;4153039;28;20224;-47
2022/12/03 04:39:14;;;;;;;15.98;12.50;;;;;;;1.29;100.00;98768.41;4185938;27;20241;-46
2022/12/03 04:41:16;;;;;;;13.07;10.30;;;;;;;1.45;100.00;98763.66;4237441;27;20546;-47
2022/12/03 04:43:18;;;;;;;13.93;10.18;;;;;;;1.42;100.00;98769.41;4222227;27;20589;-48
2022/12/03 04:45:20;;;;;;;13.73;12.23;;;;;;;1.41;100.00;98762.34;4227889;27;20809;-47
2022/12/03 04:47:22;;;;;;;17.05;11.02;;;;;;;1.40;100.00;98766.06;4225037;27;20198;-47
2022/12/03 04:49:23;;;;;;;17.27;13.50;;;;;;;1.34;100.00;98760.59;4222958;27;21227;-49
2022/12/03 04:51:25;;;;;;;13.50;12.10;;;;;;;1.38;100.00;98760.03;4217082;27;20266;-47
2022/12/03 04:53:27;;;;;;;15.35;11.40;;;;;;;1.34;100.00;98756.03;4223537;27;20597;-48
2022/12/03 04:55:29;;;;;;;13.63;12.20;;;;;;;1.31;100.00;98758.25;4210115;28;20233;-47
2022/12/03 04:57:31;;;;;;;17.45;11.82;;;;;;;1.25;100.00;98759.84;4218558;27;20287;-48
2022/12/03 04:59:33;;;;;;;12.68;11.38;;;;;;;1.34;100.00;98761.41;4222868;27;20234;-49
2022/12/03 05:01:35;;;;;;;16.02;12.15;;;;;;;1.37;100.00;98763.75;4238565;27;20205;-46
2022/12/03 05:03:38;;;;;;;15.35;11.48;;;;;;;1.46;100.00;98765.31;4223197;27;20298;-47
2022/12/03 05:05:40;;;;;;;15.15;12.43;;;;;;;1.40;100.00;98755.28;4219752;27;20240;-47
2022/12/03 05:07:42;;;;;;;14.38;12.73;;;;;;;1.42;100.00;98758.63;4223528;27;20213;-48
2022/12/03 05:09:44;;;;;;;21.27;11.77;;;;;;;1.28;100.00;98751.38;4223325;28;20198;-47
2022/12/03 05:11:51;;;;;;;14.80;12.55;;;;;;;1.42;100.00;98753.22;4226255;28;20209;-47
2022/12/03 05:13:53;;;;;;;16.13;13.77;;;;;;;1.52;100.00;98756.50;4222366;27;20201;-47
2022/12/03 05:15:55;;;;;;;17.00;11.40;;;;;;;1.53;100.00;98760.84;4222104;28;20320;-47
2022/12/03 05:17:57;;;;;;;15.05;11.85;;;;;;;1.51;100.00;98767.47;4238914;27;20248;-48
2022/12/03 05:22:19;;;;;;;16.77;11.55;;;;;;;1.54;100.00;98762.53;4237318;27;20233;-48
2022/12/03 05:24:21;;;;;;;14.85;13.38;;;;;;;1.42;100.00;98761.31;4222292;28;20209;-47
2022/12/03 05:26:23;;;;;;;15.70;12.93;;;;;;;1.34;100.00;98766.81;4207294;28;20260;-48
2022/12/03 05:28:24;;;;;;;13.25;10.13;;;;;;;1.48;100.00;98765.16;4239259;27;20197;-46
2022/12/03 05:30:26;;;;;;;15.55;10.75;;;;;;;1.32;100.00;98755.38;4226833;27;20293;-47
2022/12/03 05:32:28;;;;;;;20.38;12.57;;;;;;;1.31;100.00;98756.41;4226142;27;20331;-47
2022/12/03 05:34:30;;;;;;;19.38;12.63;;;;;;;1.31;100.00;98752.88;4242895;27;20936;-48
2022/12/03 05:36:31;;;;;;;15.18;13.60;;;;;;;1.35;100.00;98755.00;4222684;27;20252;-48
2022/12/03 05:38:33;;;;;;;15.13;12.82;;;;;;;1.43;100.00;98749.53;4206080;28;20813;-48
2022/12/03 05:40:35;;;;;;;20.05;12.90;;;;;;;1.39;100.00;98753.63;4227015;27;20311;-47
2022/12/03 05:42:52;;;;;;;13.48;12.18;;;;;;;1.44;100.00;98750.34;4230907;27;20218;-47
2022/12/03 05:44:54;;;;;;;19.02;10.65;;;;;;;1.39;100.00;98752.78;4227169;27;20241;-48
2022/12/03 05:46:57;;;;;;;15.57;11.23;;;;;;;1.46;100.00;98753.69;4242174;27;20643;-48
2022/12/03 05:48:59;;;;;;;14.75;11.68;;;;;;;1.44;100.00;98756.59;4211805;28;20595;-47
2022/12/03 05:51:01;;;;;;;12.02;10.82;;;;;;;1.46;100.00;98749.16;4225746;27;20209;-47
2022/12/03 05:53:03;;;;;;;13.07;11.75;;;;;;;1.52;100.00;98748.41;4227922;27;20657;-49
2022/12/03 05:55:06;;;;;;;15.45;12.73;;;;;;;1.54;100.00;98751.75;4227688;27;20233;-48
2022/12/03 05:57:08;;;;;;;13.88;12.45;;;;;;;1.43;100.00;98754.94;4226045;27;20205;-49
2022/12/03 05:59:10;;;;;;;14.68;11.05;;;;;;;1.43;100.00;98754.94;4225604;27;20253;-49
2022/12/03 06:01:12;;;;;;;13.60;12.15;;;;;;;1.44;100.00;98751.22;4225918;27;20300;-47
2022/12/03 06:03:13;;;;;;;16.50;12.30;;;;;;;1.40;100.00;98755.28;4230343;27;20225;-47
2022/12/03 06:05:18;;;;;;;15.13;12.27;;;;;;;1.58;100.00;98753.06;4228508;27;20305;-49
2022/12/03 06:07:20;;;;;;;17.65;12.48;;;;;;;1.30;100.00;98749.38;4223515;27;20635;-47
2022/12/03 06:09:21;;;;;;;17.90;10.82;;;;;;;1.38;100.00;98751.94;4212100;27;20637;-48
2022/12/03 06:11:23;;;;;;;13.30;11.63;;;;;;;1.20;100.00;98754.19;4240998;27;20207;-47
2022/12/03 06:13:25;;;;;;;13.38;12.10;;;;;;;1.33;100.00;98748.97;4229273;27;20198;-47
2022/12/03 06:15:27;;;;;;;15.27;11.00;;;;;;;1.40;100.00;98754.47;4226139;27;20262;-48
2022/12/03 06:17:29;;;;;;;17.63;12.93;;;;;;;1.37;100.00;98754.81;4225727;27;20299;-48
2022/12/03 06:19:30;;;;;;;20.10;12.55;;;;;;;1.28;100.00;98751.38;4226490;27;20265;-47
2022/12/03 06:21:32;;;;;;;19.13;12.43;;;;;;;1.34;100.00;98753.34;4223829;27;20264;-48
2022/12/03 06:23:34;;;;;;;15.35;13.60;;;;;;;1.32;100.00;98744.59;4206533;28;20210;-48
2022/12/03 06:25:36;;;;;;;15.93;13.35;;;;;;;1.29;100.00;98746.84;4221530;27;20824;-48
2022/12/03 06:27:38;;;;;;;13.27;11.70;;;;;;;1.40;100.00;98755.28;4225158;27;20250;-47
2022/12/03 06:29:40;;;;;;;16.02;11.27;;;;;;;1.24;100.00;98744.72;4223979;27;20199;-46
2022/12/03 06:31:41;;;;;;;21.15;13.02;;;;;;;1.25;100.00;98746.38;4224484;27;20470;-47
2022/12/03 06:33:43;;;;;;;23.30;12.60;;;;;;;1.35;100.00;98746.09;4207177;28;20202;-47
2022/12/03 06:35:45;;;;;;;18.95;13.48;;;;;;;1.25;100.00;98746.38;4224399;27;20762;-47
2022/12/03 06:37:47;;;;;;;23.58;14.85;;;;;;;1.26;100.00;98741.81;4241324;27;20241;-49
2022/12/03 06:39:48;;;;;;;19.92;12.00;;;;;;;1.28;100.00;98739.78;4224676;27;20333;-49
2022/12/03 06:41:50;;;;;;;18.55;13.18;;;;;;;1.33;100.00;98740.88;4224529;27;20271;-47
2022/12/03 06:43:52;;;;;;;18.95;13.23;;;;;;;1.34;100.00;98739.84;4222621;27;20304;-47
2022/12/03 06:45:54;;;;;;;15.82;12.13;;;;;;;1.39;100.00;98742.00;4223845;27;20254;-47
2022/12/03 06:47:56;;;;;;;15.93;12.30;;;;;;;1.29;100.00;98736.06;4221308;27;20202;-48
2022/12/03 06:49:57;;;;;;;18.90;13.13;;;;;;;1.30;100.00;98738.59;4229212;27;20678;-47
2022/12/03 06:51:59;;;;;;;25.10;13.48;;;;;;;1.24;100.00;98733.94;4222693;27;20257;-49
2022/12/03 06:54:01;;;;;;;15.13;13.35;;;;;;;1.22;100.00;98740.53;4226689;27;20280;-47
2022/12/03 06:56:03;;;;;;;22.42;15.48;;;;;;;1.30;100.00;98737.72;4227889;27;20225;-47
2022/12/03 06:58:08;;;;;;;27.42;14.93;;;;;;;1.33;100.00;98738.19;4207537;28;20282;-49
2022/12/03 07:00:10;;;;;;;19.05;14.05;;;;;;;1.40;100.00;98739.13;4222886;27;20234;-48
2022/12/03 07:02:12;;;;;;;16.83;13.70;;;;;;;1.37;100.00;98744.91;4224579;27;20281;-47
2022/12/03 07:04:14;;;;;;;19.60;14.82;;;;;;;1.27;100.00;98744.31;4223952;27;20639;-47
2022/12/03 07:06:16;;;;;;;22.65;15.45;;;;;;;1.27;100.00;98744.31;4203935;28;20740;-47
2022/12/03 07:08:18;;;;;;;19.33;12.60;;;;;;;1.34;100.00;98744.44;4238097;27;20209;-48
2022/12/03 07:10:20;;;;;;;19.88;13.60;;;;;;;1.38;100.00;98751.09;4240703;27;20221;-46
2022/12/03 07:12:22;;;;;;;23.60;14.57;;;;;;;1.46;100.00;98753.69;4226760;27;20225;-49
2022/12/03 07:14:24;;;;;;;17.80;13.05;;;;;;;1.52;100.00;98759.19;4221802;27;20231;-48
2022/12/03 07:16:28;;;;;;;21.10;14.27;;;;;;;1.37;100.00;98761.06;4242217;27;20275;-47
2022/12/03 07:18:30;;;;;;;17.30;13.90;;;;;;;1.44;100.00;98764.69;4223078;27;20826;-47
2022/12/03 07:20:32;;;;;;;21.92;15.15;;;;;;;1.33;100.00;98759.75;4208269;28;20559;-49
2022/12/03 07:22:34;;;;;;;19.95;14.45;;;;;;;1.46;100.00;98768.03;4227143;27;20252;-47
2022/12/03 07:24:36;;;;;;;21.30;13.70;;;;;;;1.51;100.00;98772.84;4240118;27;20704;-46
2022/12/03 07:26:37;;;;;;;24.23;12.85;;;;;;;1.49;100.00;98770.34;4223603;27;20656;-46
2022/12/03 07:28:39;;;;;;;19.80;13.30;;;;;;;1.53;100.00;98771.66;4224127;27;20241;-47
2022/12/03 07:30:41;;;;;;;20.17;11.90;;;;;;;1.55;100.00;98766.06;4225506;27;20652;-46
2022/12/03 07:32:42;;;;;;;28.13;16.75;;;;;;;1.39;100.00;98764.41;4239485;27;20298;-48
2022/12/03 07:34:44;;;;;;;15.93;13.23;;;;;;;1.35;100.00;98762.28;4239794;27;20267;-48
2022/12/03 07:36:46;;;;;;;18.60;14.93;;;;;;;1.38;100.00;98765.44;4220943;27;20598;-49
2022/12/03 07:38:48;;;;;;;19.65;15.10;;;;;;;1.51;100.00;98762.91;4240969;27;20305;-49
2022/12/03 07:40:50;;;;;;;24.83;16.35;;;;;;;1.31;100.00;98767.19;4222269;27;20205;-48
2022/12/03 07:42:52;;;;;;;18.05;13.95;;;;;;;1.38;100.00;98767.28;4224171;27;20205;-49
2022/12/03 07:44:53;;;;;;;35.28;16.08;;;;;;;1.28;100.00;98762.16;4222833;27;20292;-48
2022/12/03 07:46:56;;;;;;;23.98;15.48;;;;;;;1.36;100.00;98764.78;4222211;27;20202;-47
2022/12/03 07:48:58;;;;;;;20.90;15.00;;;;;;;1.45;100.00;98763.66;4227148;27;20292;-47
2022/12/03 07:51:00;;;;;;;18.15;13.55;;;;;;;1.35;100.00;98768.47;4221632;27;20293;-47
2022/12/03 07:53:02;;;;;;;26.02;13.32;;;;;;;1.37;100.00;98761.06;4224142;27;20237;-47
2022/12/03 07:55:04;;;;;;;21.33;14.70;;;;;;;1.41;100.00;98767.75;4240127;27;21065;-48
2022/12/03 07:57:06;;;;;;;21.00;15.35;;;;;;;1.35;100.00;98763.09;4235806;27;20246;-48
2022/12/03 07:59:08;;;;;;;20.02;13.82;;;;;;;1.44;100.00;98767.38;4236237;27;20445;-49
2022/12/03 08:01:10;;;;;;;18.88;13.77;;;;;;;1.44;100.00;98763.84;4204167;28;20798;-48
2022/12/03 08:03:12;;;;;;;19.70;14.18;;;;;;;1.54;100.00;98765.22;4221378;27;20213;-47
2022/12/03 08:05:13;;;;;;;19.27;13.70;;;;;;;1.60;100.00;98767.16;4223935;27;20257;-47
2022/12/03 08:07:15;;;;;;;17.65;14.95;;;;;;;1.59;100.00;98773.59;4236945;27;20253;-47
2022/12/03 08:09:17;;;;;;;19.30;13.90;;;;;;;1.74;100.00;98773.59;4239583;27;20201;-47
2022/12/03 08:11:19;;;;;;;21.15;13.55;;;;;;;1.60;100.00;98780.66;4219840;27;20197;-47
2022/12/03 08:13:21;;;;;;;17.38;14.93;;;;;;;1.54;100.00;98773.31;4222960;27;20221;-47
2022/12/03 08:15:24;;;;;;;15.38;13.63;;;;;;;1.51;100.00;98773.69;4220398;27;20570;-47
2022/12/03 08:17:27;;;;;;;16.50;13.48;;;;;;;1.47;100.00;98772.38;4223081;27;20202;-46
2022/12/03 08:19:29;;;;;;;18.33;12.00;;;;;;;1.48;100.00;98778.63;4206988;28;20599;-47
2022/12/03 08:21:34;;;;;;;16.60;13.30;;;;;;;1.47;100.00;98777.78;4221577;27;20238;-46
2022/12/03 08:23:35;;;;;;;18.17;13.88;;;;;;;1.47;100.00;98772.38;4201755;28;20218;-46
2022/12/03 08:25:38;;;;;;;15.88;11.27;;;;;;;1.53;100.00;98768.94;4235271;27;20255;-46
2022/12/03 08:27:45;;;;;;;22.27;14.02;;;;;;;1.52;100.00;98775.38;4219225;27;20233;-45
2022/12/03 08:30:11;;;;;;;15.25;13.73;;;;;;;1.61;100.00;98776.13;4241780;27;20204;-45
2022/12/03 08:32:23;;;;;;;15.82;12.98;;;;;;;1.59;100.00;98762.81;4208058;27;20327;-46
2022/12/03 08:34:26;;;;;;;23.15;13.80;;;;;;;1.49;100.00;98770.34;4208453;28;20210;-46
2022/12/03 08:36:30;;;;;;;22.48;13.48;;;;;;;1.51;100.00;98767.47;4216884;27;20268;-46
2022/12/03 08:38:32;;;;;;;23.33;12.63;;;;;;;1.51;100.00;98760.22;4222342;27;20206;-45
2022/12/03 08:40:37;;;;;;;16.00;14.38;;;;;;;1.47;100.00;98760.78;4224285;27;20209;-47
2022/12/03 08:42:42;;;;;;;21.25;13.38;;;;;;;1.50;100.00;98755.84;4223999;27;20549;-46
2022/12/03 08:44:44;;;;;;;24.45;12.90;;;;;;;1.38;100.00;98757.34;4220098;27;20210;-46
2022/12/03 08:46:51;;;;;;;16.58;13.85;;;;;;;1.40;100.00;98760.69;4220507;27;20252;-46
2022/12/03 08:48:53;;;;;;;18.30;13.65;;;;;;;1.45;100.00;98763.66;4207986;27;20202;-46
2022/12/03 08:50:57;;;;;;;18.00;13.95;;;;;;;1.39;100.00;98764.41;4242454;27;20235;-45
2022/12/03 08:53:23;;;;;;;22.45;12.82;;;;;;;1.43;100.00;98760.31;4241004;27;20291;-45
2022/12/03 08:55:34;;;;;;;20.80;13.75;;;;;;;1.50;100.00;98757.69;4241110;27;20233;-44
2022/12/03 08:57:36;;;;;;;21.85;12.02;;;;;;;1.53;100.00;98750.06;4235672;27;20236;-53
2022/12/03 08:59:38;;;;;;;17.63;13.90;;;;;;;1.47;100.00;98745.44;4203883;28;20657;-52
2022/12/03 09:01:47;;;;;;;18.55;13.85;;;;;;;1.53;100.00;98747.38;4217722;27;20209;-51
2022/12/03 09:03:53;;;;;;;18.95;11.85;;;;;;;1.64;100.00;98746.91;4234122;27;20212;-54
2022/12/03 09:05:55;;;;;;;20.33;13.48;;;;;;;1.71;100.00;98750.53;4203415;28;20883;-54
2022/12/03 09:07:57;;;;;;;17.33;13.40;;;;;;;1.57;100.00;98750.53;4220532;27;20202;-50
2022/12/03 09:09:59;;;;;;;16.17;13.02;;;;;;;1.49;100.00;98748.75;4221638;27;20197;-52
2022/12/03 09:12:01;;;;;;;17.95;14.27;;;;;;;1.58;100.00;98742.25;4218906;27;20713;-53
2022/12/03 09:14:03;;;;;;;26.13;13.25;;;;;;;1.65;100.00;98748.56;4222047;28;20293;-51
2022/12/03 09:16:05;;;;;;;18.90;13.38;;;;;;;1.80;100.00;98749.38;4223538;27;20261;-51
2022/12/03 09:18:07;;;;;;;21.35;14.43;;;;;;;1.75;100.00;98748.28;4207417;28;20239;-51
2022/12/03 09:20:09;;;;;;;19.25;11.75;;;;;;;1.86;100.00;98740.53;4236068;27;20224;-53
2022/12/03 09:22:11;;;;;;;21.23;14.45;;;;;;;1.83;100.00;98749.03;4223573;28;20214;-52
2022/12/03 09:24:27;;;;;;;19.48;13.77;;;;;;;1.88;100.00;98754.66;4187398;28;20213;-50
2022/12/03 09:26:29;;;;;;;19.92;14.40;;;;;;;1.80;100.00;98752.06;4212704;28;20684;-54
2022/12/03 09:28:31;;;;;;;14.57;12.60;;;;;;;1.71;100.00;98750.53;4219867;28;20300;-52
2022/12/03 09:30:33;;;;;;;13.20;11.70;;;;;;;1.69;100.00;98755.25;4204630;28;20203;-51
2022/12/03 09:32:38;;;;;;;20.80;13.65;;;;;;;1.70;100.00;98751.56;4237298;27;21237;-54
2022/12/03 09:34:41;;;;;;;15.48;12.05;;;;;;;1.68;100.00;98755.47;4221669;28;20198;-52
2022/12/03 09:36:43;;;;;;;19.92;12.48;;;;;;;1.67;100.00;98760.00;4223175;28;20210;-52
2022/12/03 09:38:45;;;;;;;23.10;14.25;;;;;;;1.70;100.00;98756.94;4223788;28;20995;-51
2022/12/03 09:40:48;;;;;;;15.23;12.52;;;;;;;1.83;100.00;98764.34;4221432;28;20268;-53
2022/12/03 09:42:50;;;;;;;16.25;11.55;;;;;;;1.83;100.00;98765.19;4241233;27;20668;-53
2022/12/03 09:44:52;;;;;;;14.43;13.07;;;;;;;1.91;100.00;98764.25;4222091;28;20604;-52
2022/12/03 09:46:58;;;;;;;14.93;12.90;;;;;;;2.01;100.00;98754.81;4224186;28;20305;-51
2022/12/03 09:49:01;;;;;;;16.63;12.55;;;;;;;2.05;100.00;98748.03;4208494;28;20203;-52
2022/12/03 09:51:03;;;;;;;15.38;11.38;;;;;;;1.91;100.00;98743.50;4220113;28;20234;-54